Portada
METAR-TAF:

METAR-TAF

Aeroports :

Albert, França

latitud: 49-58-21N, longitud: 002-41-29E, altitud: 111 m

Observació

L'informe es va fer fa 22 minuts, a les 18:30 UTC
Vent 8 kt del Nord
Temperatura 23°C
Humitat 47%
Pressió 1013 hPa
Visibilitat 10 km o més
sense núvols per sota de 1500 mi sense presència de cumulonimbus.

METAR: LFAQ 021830Z AUTO 36008KT CAVOK 23/11 Q1013

Hora: 20:52 (18:52 UTC)

Pronòstic

L'informe es va fer fa 4 hores i 52 minuts, a les 14:00 UTC
Pronòstic vàlid del 02 a les 15 UTC al 02 a les 24 UTC
Vent 3 kt amb direcció variable
Visibilitat 10 km o més
sense núvols per sota de 1500 mi sense presència de cumulonimbus.
Temporalment
l' 02 a les 17 UTC al 02 a les 21 UTC
Vent 10 kt del Nord

TAF: LFAQ 021400Z 0215/0224 VRB03KT CAVOK TEMPO 0217/0221 36010KT

Observacions i pronòstics meteorològics de més de 4000 aeroports (METAR i TAF).

Les estacions disponibles són els punts grocs i vermells al mapa.

Posi el ratolí al punt desitjat per veure el nom de l'estació.

Feu clic per veure les observacions i els pronòstics meteorològics.

Per canviar el mapa: feu clic els botons verds amb una creu de color negre per apropar; al botó verd amb un guió per allunyar la imatge; o en les fletxes verdes per a mapes adjacents.


METAR-TAF: